createdAt,value
2023-03-18T00:01:30.107Z,96865.69
2023-03-18T00:03:58.204Z,96869.53
2023-03-18T00:06:27.208Z,96868.91
2023-03-18T00:08:55.589Z,96864.78
2023-03-18T00:11:25.558Z,96866.47
2023-03-18T00:13:54.480Z,96869.00
2023-03-18T00:16:22.746Z,96874.41
2023-03-18T00:18:51.327Z,96871.31
2023-03-18T00:21:19.635Z,96881.47
2023-03-18T00:23:49.228Z,96873.53
2023-03-18T00:26:17.535Z,96882.09
2023-03-18T00:28:47.033Z,96885.44
2023-03-18T00:31:15.684Z,96887.59
2023-03-18T00:33:46.082Z,96879.22
2023-03-18T00:36:16.563Z,96880.78
2023-03-18T00:38:47.185Z,96880.28
2023-03-18T00:41:15.974Z,96873.97
2023-03-18T00:43:52.851Z,96881.91
2023-03-18T00:46:25.787Z,96874.41
2023-03-18T00:48:56.357Z,96873.47
2023-03-18T00:51:28.486Z,96871.59
2023-03-18T00:53:59.140Z,96871.81
2023-03-18T00:56:30.954Z,96869.63
2023-03-18T00:59:02.361Z,96869.63
2023-03-18T01:01:32.569Z,96881.22
2023-03-18T01:04:02.113Z,96872.53
2023-03-18T01:06:34.080Z,96861.78
2023-03-18T01:09:04.705Z,96864.88
2023-03-18T01:11:33.451Z,96866.22
2023-03-18T01:14:01.609Z,96865.81
2023-03-18T01:16:31.470Z,96870.75
2023-03-18T01:18:59.967Z,96861.06
2023-03-18T01:21:29.181Z,96870.66
2023-03-18T01:24:01.644Z,96870.56
2023-03-18T01:26:31.652Z,96861.25
2023-03-18T01:29:01.560Z,96857.03
2023-03-18T01:31:34.739Z,96859.31
2023-03-18T01:34:08.271Z,96858.91
2023-03-18T01:36:52.554Z,96855.88
2023-03-18T01:39:23.436Z,96861.69
2023-03-18T01:41:52.346Z,96857.25
2023-03-18T01:44:29.128Z,96860.66
2023-03-18T01:46:59.478Z,96859.31
2023-03-18T01:49:33.194Z,96849.06
2023-03-18T01:52:07.248Z,96854.97
2023-03-18T01:54:39.875Z,96864.66
2023-03-18T01:57:08.671Z,96867.78
2023-03-18T01:59:41.441Z,96866.22
2023-03-18T02:02:14.236Z,96856.50
2023-03-18T02:04:44.693Z,96854.22
2023-03-18T02:07:18.814Z,96842.97
2023-03-18T02:09:49.017Z,96845.06
2023-03-18T02:12:23.141Z,96847.22
2023-03-18T02:14:54.407Z,96849.50
2023-03-18T02:17:27.213Z,96847.22
2023-03-18T02:20:20.260Z,96852.28
2023-03-18T02:22:52.134Z,96840.47
2023-03-18T02:25:33.103Z,96835.94
2023-03-18T02:28:07.836Z,96843.69
2023-03-18T02:30:40.379Z,96848.88
2023-03-18T02:33:12.012Z,96849.50
2023-03-18T02:35:43.803Z,96847.13
2023-03-18T02:38:12.312Z,96847.41
2023-03-18T02:40:43.333Z,96855.25
2023-03-18T02:43:22.384Z,96853.22
2023-03-18T02:46:20.357Z,96855.38
2023-03-18T02:48:50.953Z,96858.91
2023-03-18T02:51:21.029Z,96860.75
2023-03-18T02:53:50.797Z,96868.09
2023-03-18T02:56:19.929Z,96873.88
2023-03-18T02:58:51.708Z,96869.25
2023-03-18T03:01:20.953Z,96877.69
2023-03-18T03:03:50.134Z,96878.00
2023-03-18T03:06:18.766Z,96876.03
2023-03-18T03:08:47.720Z,96893.81
2023-03-18T03:11:17.025Z,96883.88
2023-03-18T03:13:46.792Z,96898.31
2023-03-18T03:16:19.431Z,96892.00
2023-03-18T03:18:47.808Z,96893.75
2023-03-18T03:21:17.137Z,96887.03
2023-03-18T03:23:46.153Z,96892.84
2023-03-18T03:26:16.450Z,96908.44
2023-03-18T03:28:45.363Z,96900.88
2023-03-18T03:31:15.587Z,96903.66
2023-03-18T03:33:46.028Z,96901.69
2023-03-18T03:36:17.847Z,96906.44
2023-03-18T03:38:47.122Z,96898.59
2023-03-18T03:41:16.366Z,96897.91
2023-03-18T03:43:45.654Z,96904.50
2023-03-18T03:46:14.305Z,96903.44
2023-03-18T03:48:42.719Z,96905.13
2023-03-18T03:51:15.983Z,96897.06
2023-03-18T03:53:46.348Z,96901.69
2023-03-18T03:56:15.674Z,96902.63
2023-03-18T03:58:43.874Z,96904.28
2023-03-18T04:01:12.720Z,96899.13
2023-03-18T04:03:41.572Z,96908.28
2023-03-18T04:06:10.128Z,96908.19
2023-03-18T04:08:46.330Z,96917.25
2023-03-18T04:11:14.824Z,96913.66
2023-03-18T04:13:44.068Z,96911.91
2023-03-18T04:16:12.300Z,96923.16
2023-03-18T04:18:40.432Z,96912.50
2023-03-18T04:21:09.138Z,96908.16
2023-03-18T04:23:42.397Z,96917.03
2023-03-18T04:26:13.264Z,96921.41
2023-03-18T04:28:41.911Z,96911.84
2023-03-18T04:31:12.381Z,96914.75
2023-03-18T04:33:40.969Z,96915.91
2023-03-18T04:36:10.046Z,96923.75
2023-03-18T04:38:39.455Z,96923.84
2023-03-18T04:41:08.458Z,96918.97
2023-03-18T04:43:38.036Z,96919.19
2023-03-18T04:46:06.814Z,96926.78
2023-03-18T04:48:36.312Z,96924.94
2023-03-18T04:51:08.473Z,96928.53
2023-03-18T04:53:37.892Z,96927.53
2023-03-18T04:56:07.323Z,96918.53
2023-03-18T04:58:45.829Z,96925.03
2023-03-18T05:01:20.445Z,96926.38
2023-03-18T05:03:50.423Z,96930.69
2023-03-18T05:06:23.903Z,96934.56
2023-03-18T05:08:57.241Z,96936.19
2023-03-18T05:11:29.542Z,96942.88
2023-03-18T05:14:02.640Z,96944.22
2023-03-18T05:16:38.387Z,96938.34
2023-03-18T05:19:06.703Z,96941.69
2023-03-18T05:21:36.036Z,96934.97
2023-03-18T05:24:04.787Z,96935.34
2023-03-18T05:26:40.207Z,96938.66
2023-03-18T05:29:11.078Z,96929.50
2023-03-18T05:31:45.729Z,96932.44
2023-03-18T05:34:14.217Z,96943.69
2023-03-18T05:36:45.342Z,96939.72
2023-03-18T05:39:13.935Z,96934.38
2023-03-18T05:41:42.418Z,96936.59
2023-03-18T05:44:15.926Z,96936.44
2023-03-18T05:46:44.505Z,96942.13
2023-03-18T05:49:20.115Z,96943.78
2023-03-18T05:52:27.060Z,96936.59
2023-03-18T05:54:58.229Z,96944.63
2023-03-18T05:57:31.715Z,96940.19
2023-03-18T06:00:10.244Z,96951.34
2023-03-18T06:02:46.433Z,96949.91
2023-03-18T06:05:16.196Z,96955.66
2023-03-18T06:07:47.032Z,96956.31
2023-03-18T06:10:15.868Z,96958.19
2023-03-18T06:12:46.347Z,96960.25
2023-03-18T06:15:16.036Z,96952.84
2023-03-18T06:17:44.473Z,96961.34
2023-03-18T06:20:15.891Z,96960.41
2023-03-18T06:22:49.045Z,96957.78
2023-03-18T06:25:19.852Z,96952.28
2023-03-18T06:27:49.173Z,96949.66
2023-03-18T06:30:21.631Z,96951.75
2023-03-18T06:32:50.902Z,96954.75
2023-03-18T06:35:19.385Z,96954.31
2023-03-18T06:37:47.548Z,96956.53
2023-03-18T06:40:16.042Z,96950.53
2023-03-18T06:42:45.515Z,96957.94
2023-03-18T06:45:22.514Z,96963.47
2023-03-18T06:47:56.661Z,96950.34
2023-03-18T06:50:26.167Z,96955.63
2023-03-18T06:52:54.532Z,96965.22
2023-03-18T06:55:29.455Z,96970.22
2023-03-18T06:57:59.175Z,96968.75
2023-03-18T07:00:36.385Z,96981.00
2023-03-18T07:03:06.740Z,96970.94
2023-03-18T07:05:35.760Z,96978.50
2023-03-18T07:08:04.505Z,96985.41
2023-03-18T07:10:32.965Z,96985.50
2023-03-18T07:13:10.964Z,96985.78
2023-03-18T07:15:43.743Z,96983.78
2023-03-18T07:18:12.685Z,96984.22
2023-03-18T07:20:41.954Z,96992.53
2023-03-18T07:23:11.168Z,96988.44
2023-03-18T07:25:39.828Z,96981.50
2023-03-18T07:28:08.296Z,96987.25
2023-03-18T07:30:36.633Z,96979.34
2023-03-18T07:33:06.736Z,96974.56
2023-03-18T07:35:35.776Z,96967.66
2023-03-18T07:38:04.333Z,96956.91
2023-03-18T07:40:32.547Z,96967.38
2023-03-18T07:43:01.110Z,96968.88
2023-03-18T07:45:30.275Z,96969.25
2023-03-18T07:47:59.021Z,96973.75
2023-03-18T07:50:28.774Z,96972.06
2023-03-18T07:52:57.179Z,96971.91
2023-03-18T07:55:25.597Z,96974.97
2023-03-18T07:57:54.226Z,96967.00
2023-03-18T08:00:23.420Z,96964.94
2023-03-18T08:02:51.482Z,96970.97
2023-03-18T08:06:10.328Z,96975.19
2023-03-18T08:08:40.599Z,96985.28
2023-03-18T08:11:11.359Z,96979.00
2023-03-18T08:13:41.466Z,96968.38
2023-03-18T08:16:10.202Z,96983.03
2023-03-18T08:18:38.452Z,96985.72
2023-03-18T08:21:07.910Z,96978.75
2023-03-18T08:23:36.460Z,96984.28
2023-03-18T08:26:06.383Z,96985.44
2023-03-18T08:28:34.869Z,96985.66
2023-03-18T08:31:03.569Z,96979.72
2023-03-18T08:33:31.731Z,96978.66
2023-03-18T08:36:00.498Z,96982.34
2023-03-18T08:38:29.671Z,96992.69
2023-03-18T08:40:58.394Z,96982.75
2023-03-18T08:43:28.548Z,96981.63
2023-03-18T08:45:57.779Z,96981.31
2023-03-18T08:48:26.769Z,96975.25
2023-03-18T08:50:55.373Z,96967.03
2023-03-18T08:53:23.474Z,96975.44
2023-03-18T08:55:51.968Z,96984.13
2023-03-18T08:58:20.374Z,96989.44
2023-03-18T09:00:50.613Z,96994.50
2023-03-18T09:03:19.384Z,96993.06
2023-03-18T09:05:49.275Z,97003.25
2023-03-18T09:08:17.665Z,96990.56
2023-03-18T09:10:46.472Z,96985.06
2023-03-18T09:13:14.767Z,96986.06
2023-03-18T09:15:43.428Z,96987.81
2023-03-18T09:18:13.548Z,96977.44
2023-03-18T09:20:42.422Z,96979.97
2023-03-18T09:23:12.764Z,96975.78
2023-03-18T09:25:42.847Z,96976.28
2023-03-18T09:28:11.308Z,96977.03
2023-03-18T09:30:39.945Z,96977.28
2023-03-18T09:33:09.379Z,96967.88
2023-03-18T09:35:39.913Z,96965.94
2023-03-18T09:38:08.499Z,96969.25
2023-03-18T09:40:39.089Z,96972.63
2023-03-18T09:43:18.820Z,96961.50
2023-03-18T09:46:00.077Z,96961.31
2023-03-18T09:48:48.591Z,96958.03
2023-03-18T09:51:34.992Z,96966.81
2023-03-18T09:54:08.267Z,96965.31
2023-03-18T09:56:39.456Z,96972.88
2023-03-18T09:59:17.762Z,96961.47
2023-03-18T10:01:48.611Z,96962.78
2023-03-18T10:04:23.726Z,96967.31
2023-03-18T10:06:58.762Z,96978.28
2023-03-18T10:09:31.134Z,96971.38
2023-03-18T10:12:05.986Z,96973.16
2023-03-18T10:14:38.926Z,96978.06
2023-03-18T10:17:17.958Z,96966.31
2023-03-18T10:19:50.170Z,96969.03
2023-03-18T10:22:35.795Z,96976.81
2023-03-18T10:25:15.854Z,96976.72
2023-03-18T10:27:54.934Z,96969.53
2023-03-18T10:30:36.009Z,96980.84
2023-03-18T10:33:14.461Z,96974.09
2023-03-18T10:35:49.527Z,96970.34
2023-03-18T10:38:25.553Z,96974.38
2023-03-18T10:40:54.721Z,96978.66
2023-03-18T10:43:26.551Z,96977.63
2023-03-18T10:46:02.363Z,96983.44
2023-03-18T10:48:34.790Z,96989.75
2023-03-18T10:51:13.846Z,96981.97
2023-03-18T10:53:48.069Z,97001.16
2023-03-18T10:56:17.029Z,96985.22
2023-03-18T10:58:46.292Z,96997.00
2023-03-18T11:01:21.196Z,96999.09
2023-03-18T11:03:54.701Z,96997.81
2023-03-18T11:06:26.491Z,96998.97
2023-03-18T11:09:07.003Z,96989.22
2023-03-18T11:11:37.194Z,96987.75
2023-03-18T11:14:06.945Z,96995.28
2023-03-18T11:16:39.995Z,97003.06
2023-03-18T11:19:22.800Z,97005.31
2023-03-18T11:22:01.476Z,97008.59
2023-03-18T11:24:39.728Z,97006.97
2023-03-18T11:27:28.355Z,97001.41
2023-03-18T11:29:59.996Z,97005.50
2023-03-18T11:32:31.285Z,97004.72
2023-03-18T11:35:01.833Z,96997.16
2023-03-18T11:37:35.272Z,96994.09
2023-03-18T11:40:35.948Z,96978.56
2023-03-18T11:43:13.871Z,96990.75
2023-03-18T11:45:47.406Z,96988.81
2023-03-18T11:48:19.466Z,96991.16
2023-03-18T11:51:02.348Z,96987.84
2023-03-18T11:53:46.637Z,96994.03
2023-03-18T11:56:25.261Z,97006.38
2023-03-18T11:59:17.631Z,96999.41
2023-03-18T12:01:57.897Z,96995.13
2023-03-18T12:04:39.858Z,96997.63
2023-03-18T12:07:30.521Z,96994.97
2023-03-18T12:10:08.791Z,96990.75
2023-03-18T12:12:55.996Z,96993.53
2023-03-18T12:15:40.089Z,96993.09
2023-03-18T12:18:18.002Z,96987.84
2023-03-18T12:20:51.201Z,97001.31
2023-03-18T12:23:50.275Z,96989.66
2023-03-18T12:26:27.924Z,96997.09
2023-03-18T12:29:18.800Z,96989.63
2023-03-18T12:31:58.611Z,96997.06
2023-03-18T12:34:44.717Z,97000.50
2023-03-18T12:37:32.212Z,96992.53
2023-03-18T12:40:15.467Z,96988.72
2023-03-18T12:42:59.211Z,96986.88
2023-03-18T12:45:35.539Z,96996.34
2023-03-18T12:48:09.702Z,96986.25
2023-03-18T12:50:41.550Z,96980.69
2023-03-18T12:53:17.153Z,96986.59
2023-03-18T12:55:49.469Z,96996.31
2023-03-18T12:58:23.283Z,96989.81
2023-03-18T13:00:58.781Z,96988.25
2023-03-18T13:03:33.767Z,96989.91
2023-03-18T13:06:06.199Z,96996.81
2023-03-18T13:08:48.448Z,96995.13
2023-03-18T13:11:38.620Z,96996.44
2023-03-18T13:14:15.634Z,96979.16
2023-03-18T13:16:45.260Z,96987.94
2023-03-18T13:19:13.562Z,96984.03
2023-03-18T13:21:45.105Z,96989.19
2023-03-18T13:24:37.638Z,96978.84
2023-03-18T13:27:39.309Z,96973.91
2023-03-18T13:30:17.854Z,96975.19
2023-03-18T13:33:21.851Z,96974.34
2023-03-18T13:36:14.804Z,96973.44
2023-03-18T13:39:08.480Z,96970.31
2023-03-18T13:42:00.508Z,96972.50
2023-03-18T13:44:41.201Z,96974.91
2023-03-18T13:47:16.087Z,96961.91
2023-03-18T13:49:45.830Z,96967.22
2023-03-18T13:52:30.460Z,96970.19
2023-03-18T13:55:03.770Z,96968.53
2023-03-18T13:57:38.036Z,96969.19
2023-03-18T14:00:23.724Z,96971.88
2023-03-18T14:03:06.521Z,96968.44
2023-03-18T14:05:41.765Z,96978.09
2023-03-18T14:08:53.211Z,96981.66
2023-03-18T14:11:50.479Z,96973.53
2023-03-18T14:14:41.049Z,96970.25
2023-03-18T14:17:25.210Z,96969.75
2023-03-18T14:19:55.905Z,96965.16
2023-03-18T14:22:30.570Z,96975.66
2023-03-18T14:25:22.050Z,96970.97
2023-03-18T14:27:54.965Z,96959.69
2023-03-18T14:30:50.345Z,96951.03
2023-03-18T14:33:36.388Z,96953.66
2023-03-18T14:36:11.498Z,96951.47
2023-03-18T14:38:47.422Z,96949.16
2023-03-18T14:41:23.858Z,96947.94
2023-03-18T14:44:21.520Z,96950.16
2023-03-18T14:46:54.043Z,96951.34
2023-03-18T14:49:36.462Z,96942.72
2023-03-18T14:52:17.256Z,96944.22
2023-03-18T14:54:46.439Z,96946.69
2023-03-18T14:57:14.666Z,96942.91
2023-03-18T14:59:44.630Z,96936.91
2023-03-18T15:02:24.109Z,96936.84
2023-03-18T15:04:55.465Z,96936.75
2023-03-18T15:07:33.987Z,96939.88
2023-03-18T15:10:06.117Z,96935.38
2023-03-18T15:12:34.644Z,96940.53
2023-03-18T15:15:05.134Z,96936.94
2023-03-18T15:17:33.535Z,96936.22
2023-03-18T15:20:02.015Z,96938.88
2023-03-18T15:22:33.200Z,96936.03
2023-03-18T15:25:04.611Z,96932.81
2023-03-18T15:27:34.540Z,96937.97
2023-03-18T15:30:07.965Z,96934.88
2023-03-18T15:32:46.139Z,96947.22
2023-03-18T15:35:18.838Z,96938.41
2023-03-18T15:37:48.406Z,96938.31
2023-03-18T15:40:36.398Z,96945.66
2023-03-18T15:43:17.310Z,96944.13
2023-03-18T15:45:53.640Z,96944.84
2023-03-18T15:48:27.636Z,96937.28
2023-03-18T15:50:58.324Z,96939.00
2023-03-18T15:53:28.035Z,96953.31
2023-03-18T15:55:58.012Z,96946.31
2023-03-18T15:58:28.320Z,96951.81
2023-03-18T16:00:58.642Z,96949.09
2023-03-18T16:03:31.306Z,96944.66
2023-03-18T16:06:00.400Z,96954.56
2023-03-18T16:08:28.882Z,96953.25
2023-03-18T16:10:59.583Z,96952.03
2023-03-18T16:13:30.466Z,96957.03
2023-03-18T16:16:01.407Z,96966.63
2023-03-18T16:18:29.882Z,96962.09
2023-03-18T16:20:57.908Z,96964.50
2023-03-18T16:23:26.645Z,96968.09
2023-03-18T16:25:56.745Z,96976.09
2023-03-18T16:28:28.247Z,96979.63
2023-03-18T16:30:57.777Z,96973.44
2023-03-18T16:33:28.048Z,96973.03
2023-03-18T16:35:59.451Z,96984.69
2023-03-18T16:38:28.576Z,96975.47
2023-03-18T16:40:57.597Z,96990.47
2023-03-18T16:43:28.335Z,96994.00
2023-03-18T16:46:01.088Z,96992.34
2023-03-18T16:48:31.360Z,97005.25
2023-03-18T16:51:02.580Z,97008.06
2023-03-18T16:53:33.331Z,97016.31
2023-03-18T16:56:04.550Z,97013.66
2023-03-18T16:58:35.644Z,97008.44
2023-03-18T17:01:06.261Z,97010.53
2023-03-18T17:03:37.381Z,97019.59
2023-03-18T17:06:07.072Z,97027.09
2023-03-18T17:08:36.699Z,97024.38
2023-03-18T17:11:05.692Z,97026.88
2023-03-18T17:13:38.041Z,97018.50
2023-03-18T17:16:07.446Z,97023.81
2023-03-18T17:18:37.596Z,97018.63
2023-03-18T17:21:07.111Z,97013.56
2023-03-18T17:23:35.796Z,97014.81
2023-03-18T17:26:04.846Z,97019.31
2023-03-18T17:28:37.263Z,97020.97
2023-03-18T17:31:07.633Z,97023.47
2023-03-18T17:33:38.478Z,97028.09
2023-03-18T17:36:08.649Z,97025.72
2023-03-18T17:38:37.582Z,97022.06
2023-03-18T17:41:14.039Z,97026.66
2023-03-18T17:43:42.315Z,97022.75
2023-03-18T17:46:10.775Z,97029.38
2023-03-18T17:48:41.138Z,97029.59
2023-03-18T17:51:16.813Z,97034.16
2023-03-18T17:53:48.073Z,97039.00
2023-03-18T17:56:18.593Z,97041.13
2023-03-18T17:58:48.970Z,97048.34
2023-03-18T18:01:19.613Z,97046.44
2023-03-18T18:03:49.843Z,97041.97
2023-03-18T18:06:23.317Z,97033.25
2023-03-18T18:08:52.163Z,97027.72
2023-03-18T18:11:22.507Z,97030.91
2023-03-18T18:13:52.242Z,97027.97
2023-03-18T18:16:21.655Z,97021.59
2023-03-18T18:18:51.843Z,97015.69
2023-03-18T18:21:24.732Z,97021.84
2023-03-18T18:23:53.441Z,97021.59
2023-03-18T18:26:22.887Z,97026.44
2023-03-18T18:28:52.894Z,97023.00
2023-03-18T18:31:22.824Z,97023.13
2023-03-18T18:33:55.887Z,97020.53
2023-03-18T18:36:28.152Z,97025.34
2023-03-18T18:38:57.008Z,97016.38
2023-03-18T18:41:26.003Z,97016.94
2023-03-18T18:43:55.657Z,97018.16
2023-03-18T18:46:26.564Z,97021.47
2023-03-18T18:48:56.694Z,97015.22
2023-03-18T18:51:26.588Z,97016.06
2023-03-18T18:53:56.340Z,97022.66
2023-03-18T18:56:34.285Z,97021.13
2023-03-18T18:59:05.322Z,97012.16
2023-03-18T19:01:33.594Z,97018.75
2023-03-18T19:04:04.028Z,97018.75
2023-03-18T19:06:33.608Z,97020.16
2023-03-18T19:09:05.163Z,97014.97
2023-03-18T19:11:34.778Z,97010.00
2023-03-18T19:14:18.858Z,97009.31
2023-03-18T19:16:48.309Z,97006.00
2023-03-18T19:19:20.560Z,97004.94
2023-03-18T19:21:49.740Z,97008.47
2023-03-18T19:24:26.809Z,97000.97
2023-03-18T19:26:56.843Z,97001.41
2023-03-18T19:29:26.698Z,96999.88
2023-03-18T19:31:55.428Z,96993.25
2023-03-18T19:34:26.968Z,97002.22
2023-03-18T19:36:57.117Z,97005.31
2023-03-18T19:39:27.894Z,97004.47
2023-03-18T19:41:56.761Z,97014.84
2023-03-18T19:44:26.738Z,97011.41
2023-03-18T19:46:56.483Z,97011.31
2023-03-18T19:49:29.949Z,97010.25
2023-03-18T19:51:58.930Z,97007.41
2023-03-18T19:54:31.579Z,97013.31
2023-03-18T19:57:03.752Z,97015.69
2023-03-18T19:59:38.617Z,97019.34
2023-03-18T20:02:19.556Z,97022.06
2023-03-18T20:04:50.344Z,97025.72
2023-03-18T20:07:20.762Z,97028.69
2023-03-18T20:09:50.296Z,97038.69
2023-03-18T20:12:25.815Z,97030.09
2023-03-18T20:14:54.681Z,97018.97
2023-03-18T20:17:34.416Z,97028.22
2023-03-18T20:20:05.678Z,97024.66
2023-03-18T20:22:37.657Z,97022.22
2023-03-18T20:25:08.425Z,97020.06
2023-03-18T20:27:36.427Z,97027.81
2023-03-18T20:30:22.929Z,97025.13
2023-03-18T20:32:52.357Z,97032.63
2023-03-18T20:35:22.249Z,97032.41
2023-03-18T20:37:50.565Z,97036.63
2023-03-18T20:40:22.946Z,97031.97
2023-03-18T20:42:52.779Z,97038.19
2023-03-18T20:45:22.254Z,97033.31
2023-03-18T20:47:51.732Z,97034.88
2023-03-18T20:50:25.689Z,97034.13
2023-03-18T20:52:54.054Z,97031.88
2023-03-18T20:55:25.565Z,97025.88
2023-03-18T20:57:55.035Z,97018.03
2023-03-18T21:00:26.970Z,97022.75
2023-03-18T21:02:57.670Z,97028.47
2023-03-18T21:05:28.411Z,97013.03
2023-03-18T21:07:56.727Z,97020.16
2023-03-18T21:10:27.391Z,97025.56
2023-03-18T21:12:56.209Z,97026.84
2023-03-18T21:15:26.166Z,97012.66
2023-03-18T21:17:55.079Z,97015.84
2023-03-18T21:20:28.825Z,97023.41
2023-03-18T21:22:57.537Z,97020.91
2023-03-18T21:25:27.977Z,97019.25
2023-03-18T21:27:56.673Z,97024.78
2023-03-18T21:30:24.831Z,97017.16
2023-03-18T21:32:53.219Z,97021.41
2023-03-18T21:35:23.433Z,97023.47
2023-03-18T21:37:53.893Z,97011.63
2023-03-18T21:40:24.041Z,97008.00
2023-03-18T21:42:52.675Z,97015.13
2023-03-18T21:45:22.945Z,97017.63
2023-03-18T21:47:52.704Z,97020.09
2023-03-18T21:50:24.088Z,97008.81
2023-03-18T21:52:54.680Z,97012.50
2023-03-18T21:55:22.813Z,97018.59
2023-03-18T21:57:50.993Z,97020.34
2023-03-18T22:00:21.139Z,97016.72
2023-03-18T22:02:50.088Z,97026.03
2023-03-18T22:05:21.066Z,97028.59
2023-03-18T22:07:50.752Z,97024.53
2023-03-18T22:10:23.160Z,97021.69
2023-03-18T22:12:51.689Z,97021.25
2023-03-18T22:15:35.720Z,97021.44
2023-03-18T22:18:04.782Z,97016.66
2023-03-18T22:20:34.822Z,97023.97
2023-03-18T22:23:03.183Z,97033.69
2023-03-18T22:25:36.560Z,97026.31
2023-03-18T22:28:05.840Z,97020.41
2023-03-18T22:30:35.799Z,97019.09
2023-03-18T22:33:06.673Z,97032.19
2023-03-18T22:35:36.138Z,97037.94
2023-03-18T22:38:04.375Z,97035.06
2023-03-18T22:40:34.146Z,97037.66
2023-03-18T22:43:02.915Z,97033.13
2023-03-18T22:45:33.296Z,97031.78
2023-03-18T22:48:03.908Z,97029.22
2023-03-18T22:50:34.552Z,97033.44
2023-03-18T22:53:06.788Z,97030.19
2023-03-18T22:55:38.785Z,97028.28
2023-03-18T22:58:07.425Z,97023.47
2023-03-18T23:00:38.159Z,97030.00
2023-03-18T23:03:12.935Z,97031.38
2023-03-18T23:05:41.183Z,97020.59
2023-03-18T23:08:09.889Z,97029.31
2023-03-18T23:10:39.656Z,97026.16
2023-03-18T23:13:14.456Z,97020.41
2023-03-18T23:15:42.805Z,97015.53
2023-03-18T23:18:15.453Z,97021.41
2023-03-18T23:20:44.479Z,97023.19
2023-03-18T23:23:13.208Z,97027.19
2023-03-18T23:25:43.861Z,97036.50
2023-03-18T23:28:12.165Z,97031.66
2023-03-18T23:30:43.117Z,97026.09
2023-03-18T23:33:11.539Z,97026.78
2023-03-18T23:35:39.925Z,97020.22
2023-03-18T23:38:08.113Z,97016.03
2023-03-18T23:40:36.622Z,97024.31
2023-03-18T23:43:06.666Z,97028.81
2023-03-18T23:45:35.299Z,97026.47
2023-03-18T23:48:04.094Z,97024.53
2023-03-18T23:50:32.246Z,97024.72
2023-03-18T23:53:00.971Z,97015.00
2023-03-18T23:55:36.412Z,97018.81
2023-03-18T23:58:06.367Z,97009.03
